Time;durP1;ratioP1;P1;durP2;ratioP2;P2;SDS_P1;SDS_P2;PMS_P1;PMS_P2;Temp;Humidity;BMP_temperature;BMP_pressure;BME280_temperature;BME280_humidity;BME280_pressure;Samples;Min_cycle;Max_cycle;Signal;HPM_P1;HPM_P2
2023/04/14 00:01:13;;;;;;;6.07;1.70;;;;;;;;;;5014824;28;20057;-68
2023/04/14 00:03:40;;;;;;;3.25;1.60;;;;;;;;;;5028911;28;20073;-70
2023/04/14 00:06:07;;;;;;;3.85;1.60;;;;;;;;;;5014235;28;20064;-70
2023/04/14 00:08:35;;;;;;;2.78;1.48;;;;;;;;;;5002052;28;20323;-68
2023/04/14 00:11:02;;;;;;;;;;;;;;;;;;5015317;28;20049;-68
2023/04/14 00:13:28;;;;;;;5.38;1.63;;;;;;;;;;5014373;28;19951;-69
2023/04/14 00:15:55;;;;;;;6.38;2.28;;;;;;;;;;5014614;28;20127;-70
2023/04/14 00:18:22;;;;;;;4.68;1.50;;;;;;;;;;5008507;28;20057;-68
2023/04/14 00:20:49;;;;;;;3.55;1.67;;;;;;;;;;5009635;28;20123;-70
2023/04/14 00:23:17;;;;;;;4.72;1.63;;;;;;;;;;5013037;28;20107;-68
2023/04/14 00:25:45;;;;;;;2.92;1.48;;;;;;;;;;5014406;28;20061;-69
2023/04/14 00:28:12;;;;;;;3.95;1.70;;;;;;;;;;4999677;28;20064;-71
2023/04/14 00:30:38;;;;;;;4.20;1.75;;;;;;;;;;5002970;28;20152;-69
2023/04/14 00:33:05;;;;;;;3.80;1.35;;;;;;;;;;5015026;28;20064;-71
2023/04/14 00:35:32;;;;;;;2.83;1.50;;;;;;;;;;5012269;28;20127;-69
2023/04/14 00:37:58;;;;;;;4.00;1.48;;;;;;;;;;5014215;28;20057;-70
2023/04/14 00:40:25;;;;;;;4.10;1.80;;;;;;;;;;5014193;28;20128;-70
2023/04/14 00:42:54;;;;;;;2.95;1.45;;;;;;;;;;5014258;28;20068;-68
2023/04/14 00:45:24;;;;;;;4.75;1.90;;;;;;;;;;5014751;28;20160;-71
2023/04/14 00:47:50;;;;;;;5.30;1.97;;;;;;;;;;5021503;28;20057;-71
2023/04/14 00:50:18;;;;;;;4.82;1.98;;;;;;;;;;4998973;28;20053;-68
2023/04/14 00:52:46;;;;;;;3.65;1.60;;;;;;;;;;4994621;28;20053;-67
2023/04/14 00:55:13;;;;;;;4.53;1.90;;;;;;;;;;5002856;28;20085;-70
2023/04/14 00:57:40;;;;;;;4.35;1.50;;;;;;;;;;4998726;28;20058;-67
2023/04/14 01:00:10;;;;;;;6.65;1.65;;;;;;;;;;4997842;28;20049;-69
2023/04/14 01:02:37;;;;;;;4.03;1.58;;;;;;;;;;4994848;28;20061;-70
2023/04/14 01:05:04;;;;;;;4.18;1.85;;;;;;;;;;4997560;28;20052;-70
2023/04/14 01:07:30;;;;;;;2.38;1.42;;;;;;;;;;5017086;28;20057;-70
2023/04/14 01:09:57;;;;;;;3.83;1.70;;;;;;;;;;5001014;28;20045;-69
2023/04/14 01:12:30;;;;;;;4.32;1.70;;;;;;;;;;4997226;28;20084;-70
2023/04/14 01:15:03;;;;;;;3.58;1.48;;;;;;;;;;4997116;28;20057;-69
2023/04/14 01:17:32;;;;;;;4.45;1.77;;;;;;;;;;4995687;28;20063;-70
2023/04/14 01:20:07;;;;;;;4.63;1.77;;;;;;;;;;4999738;28;20133;-70
2023/04/14 01:22:36;;;;;;;4.60;1.65;;;;;;;;;;4989139;28;20072;-70
2023/04/14 01:25:20;;;;;;;3.63;1.58;;;;;;;;;;4998459;28;20054;-70
2023/04/14 01:27:53;;;;;;;6.35;2.08;;;;;;;;;;5010589;28;20065;-70
2023/04/14 01:30:31;;;;;;;3.33;1.63;;;;;;;;;;5019323;28;20057;-68
2023/04/14 01:32:58;;;;;;;;;;;;;;;;;;4997484;28;20065;-68
2023/04/14 01:35:29;;;;;;;5.00;1.90;;;;;;;;;;5018955;28;19929;-67
2023/04/14 01:38:00;;;;;;;5.25;1.80;;;;;;;;;;5013402;28;20068;-70
2023/04/14 01:40:28;;;;;;;3.47;1.60;;;;;;;;;;5015929;28;20115;-71
2023/04/14 01:42:58;;;;;;;3.90;1.70;;;;;;;;;;4997233;28;20076;-69
2023/04/14 01:45:26;;;;;;;5.40;1.98;;;;;;;;;;5019540;28;20085;-69
2023/04/14 01:47:53;;;;;;;3.97;1.83;;;;;;;;;;4995458;28;20053;-70
2023/04/14 01:50:20;;;;;;;5.50;2.40;;;;;;;;;;5019179;28;20049;-70
2023/04/14 01:52:52;;;;;;;4.90;1.80;;;;;;;;;;5008541;28;20183;-68
2023/04/14 01:55:20;;;;;;;10.00;2.00;;;;;;;;;;5019054;28;20061;-69
2023/04/14 01:57:48;;;;;;;5.22;2.15;;;;;;;;;;4993664;28;20173;-69
2023/04/14 02:00:16;;;;;;;4.13;1.88;;;;;;;;;;5000204;28;20049;-72
2023/04/14 02:02:44;;;;;;;6.25;2.10;;;;;;;;;;4992016;28;20092;-70
2023/04/14 02:05:12;;;;;;;3.63;1.80;;;;;;;;;;4986392;28;20057;-69
2023/04/14 02:07:40;;;;;;;4.88;2.10;;;;;;;;;;5012501;28;20049;-71
2023/04/14 02:10:09;;;;;;;4.63;2.25;;;;;;;;;;5016858;28;20053;-71
2023/04/14 02:12:37;;;;;;;5.43;2.10;;;;;;;;;;5012796;28;20056;-70
2023/04/14 02:15:06;;;;;;;4.67;1.93;;;;;;;;;;4995957;28;20073;-68
2023/04/14 02:17:33;;;;;;;5.65;2.00;;;;;;;;;;4994426;28;20292;-71
2023/04/14 02:20:00;;;;;;;4.32;1.90;;;;;;;;;;4995214;28;20057;-69
2023/04/14 02:22:27;;;;;;;3.28;1.67;;;;;;;;;;5015028;28;20053;-69
2023/04/14 02:24:54;;;;;;;3.67;2.03;;;;;;;;;;4995998;28;20065;-70
2023/04/14 02:27:26;;;;;;;3.75;2.00;;;;;;;;;;4993058;28;20061;-69
2023/04/14 02:29:54;;;;;;;4.55;1.80;;;;;;;;;;4996547;28;20144;-68
2023/04/14 02:32:22;;;;;;;6.03;2.17;;;;;;;;;;4999053;28;20053;-68
2023/04/14 02:34:52;;;;;;;4.43;2.00;;;;;;;;;;4993071;28;20061;-70
2023/04/14 02:37:21;;;;;;;3.88;1.80;;;;;;;;;;4991836;28;20063;-70
2023/04/14 02:39:50;;;;;;;4.95;2.30;;;;;;;;;;5003601;28;20136;-69
2023/04/14 02:42:19;;;;;;;6.43;2.10;;;;;;;;;;4999238;28;20084;-70
2023/04/14 02:44:50;;;;;;;5.65;2.35;;;;;;;;;;4993488;28;20084;-70
2023/04/14 02:47:25;;;;;;;9.25;2.33;;;;;;;;;;4991035;28;20064;-70
2023/04/14 02:49:52;;;;;;;7.43;2.17;;;;;;;;;;4995742;28;20069;-69
2023/04/14 02:52:20;;;;;;;5.93;2.15;;;;;;;;;;5000992;28;20064;-70
2023/04/14 02:54:48;;;;;;;6.07;2.20;;;;;;;;;;4990863;28;20072;-70
2023/04/14 02:57:14;;;;;;;5.57;2.50;;;;;;;;;;4994288;28;20053;-69
2023/04/14 02:59:41;;;;;;;3.67;2.00;;;;;;;;;;4995373;28;20058;-71
2023/04/14 03:02:11;;;;;;;5.97;2.25;;;;;;;;;;5005055;28;20064;-70
2023/04/14 03:04:39;;;;;;;4.85;2.20;;;;;;;;;;4992869;28;20045;-71
2023/04/14 03:07:07;;;;;;;6.30;2.22;;;;;;;;;;5002379;28;20135;-70
2023/04/14 03:09:34;;;;;;;5.20;1.77;;;;;;;;;;4994341;28;20057;-70
2023/04/14 03:12:02;;;;;;;6.55;2.30;;;;;;;;;;4997049;28;20057;-69
2023/04/14 03:14:29;;;;;;;6.13;2.33;;;;;;;;;;5012461;28;20058;-69
2023/04/14 03:16:56;;;;;;;5.68;2.08;;;;;;;;;;4997609;28;20072;-70
2023/04/14 03:19:26;;;;;;;5.03;2.25;;;;;;;;;;4992333;28;20135;-70
2023/04/14 03:21:54;;;;;;;6.63;2.17;;;;;;;;;;4995262;28;20080;-71
2023/04/14 03:24:23;;;;;;;4.10;2.03;;;;;;;;;;4992190;28;20057;-69
2023/04/14 03:26:49;;;;;;;;;;;;;;;;;;5007139;28;20121;-70
2023/04/14 03:29:18;;;;;;;4.43;2.13;;;;;;;;;;5010563;28;20016;-69
2023/04/14 03:31:45;;;;;;;5.18;2.40;;;;;;;;;;5004903;28;20063;-67
2023/04/14 03:34:14;;;;;;;5.72;2.42;;;;;;;;;;4995085;28;20057;-70
2023/04/14 03:36:40;;;;;;;;;;;;;;;;;;4995415;28;20084;-68
2023/04/14 03:39:11;;;;;;;4.25;2.00;;;;;;;;;;5014088;28;19925;-71
2023/04/14 03:41:39;;;;;;;4.13;1.92;;;;;;;;;;4991321;28;20061;-69
2023/04/14 03:44:13;;;;;;;5.35;1.83;;;;;;;;;;4996101;28;20061;-69
2023/04/14 03:46:40;;;;;;;5.45;2.05;;;;;;;;;;4994933;28;20064;-71
2023/04/14 03:49:09;;;;;;;8.32;2.40;;;;;;;;;;5004049;28;20063;-68
2023/04/14 03:51:39;;;;;;;4.93;2.00;;;;;;;;;;5022971;28;20132;-69
2023/04/14 03:54:06;;;;;;;5.10;1.73;;;;;;;;;;4995249;28;20057;-69
2023/04/14 03:56:37;;;;;;;7.28;2.15;;;;;;;;;;4996244;28;20089;-71
2023/04/14 03:59:04;;;;;;;5.03;1.90;;;;;;;;;;4978949;28;20050;-70
2023/04/14 04:01:32;;;;;;;6.55;1.85;;;;;;;;;;4987142;28;20213;-70
2023/04/14 04:04:00;;;;;;;6.97;2.10;;;;;;;;;;4993560;28;20061;-70
2023/04/14 04:06:27;;;;;;;5.22;2.00;;;;;;;;;;4998306;28;20061;-70
2023/04/14 04:08:56;;;;;;;5.55;2.35;;;;;;;;;;4994140;28;20064;-70
2023/04/14 04:11:23;;;;;;;6.07;2.75;;;;;;;;;;4994026;28;20085;-70
2023/04/14 04:13:52;;;;;;;5.50;2.15;;;;;;;;;;4997873;28;20079;-70
2023/04/14 04:16:20;;;;;;;4.07;1.83;;;;;;;;;;5018876;28;20124;-69
2023/04/14 04:18:48;;;;;;;5.07;1.92;;;;;;;;;;5017920;28;20061;-69
2023/04/14 04:21:16;;;;;;;7.40;2.30;;;;;;;;;;5006101;28;20057;-70
2023/04/14 04:23:43;;;;;;;;;;;;;;;;;;5023225;28;20067;-70
2023/04/14 04:26:09;;;;;;;4.20;1.92;;;;;;;;;;5017549;28;19990;-70
2023/04/14 04:28:37;;;;;;;5.10;2.17;;;;;;;;;;5034774;28;20064;-71
2023/04/14 04:31:06;;;;;;;5.05;2.40;;;;;;;;;;5026797;28;20111;-68
2023/04/14 04:33:34;;;;;;;6.75;2.30;;;;;;;;;;5012036;28;21223;-68
2023/04/14 04:36:01;;;;;;;5.88;1.67;;;;;;;;;;5017309;28;20056;-68
2023/04/14 04:38:28;;;;;;;3.83;1.95;;;;;;;;;;5017507;28;20064;-70
2023/04/14 04:40:54;;;;;;;5.10;2.10;;;;;;;;;;5020952;28;20060;-68
2023/04/14 04:43:21;;;;;;;5.93;2.30;;;;;;;;;;5002943;28;20061;-71
2023/04/14 04:45:52;;;;;;;6.43;2.33;;;;;;;;;;4997118;28;20067;-68
2023/04/14 04:48:20;;;;;;;5.28;1.90;;;;;;;;;;5021377;28;20053;-69
2023/04/14 04:50:47;;;;;;;6.85;2.65;;;;;;;;;;5017833;28;20057;-71
2023/04/14 04:53:14;;;;;;;6.55;2.20;;;;;;;;;;5033005;28;20052;-71
2023/04/14 04:55:41;;;;;;;5.28;1.95;;;;;;;;;;5012876;28;20099;-68
2023/04/14 04:58:07;;;;;;;5.45;1.92;;;;;;;;;;5020712;28;20066;-69
2023/04/14 05:00:39;;;;;;;5.95;2.13;;;;;;;;;;5016620;28;20060;-68
2023/04/14 05:03:05;;;;;;;4.68;2.25;;;;;;;;;;5024245;28;20061;-68
2023/04/14 05:05:36;;;;;;;7.78;2.08;;;;;;;;;;5006154;28;20056;-71
2023/04/14 05:08:03;;;;;;;5.10;2.22;;;;;;;;;;5024098;28;20052;-68
2023/04/14 05:10:30;;;;;;;4.85;2.45;;;;;;;;;;5020921;28;20052;-68
2023/04/14 05:13:01;;;;;;;6.25;2.42;;;;;;;;;;5031761;28;20060;-70
2023/04/14 05:15:27;;;;;;;6.07;2.13;;;;;;;;;;5021519;28;20102;-69
2023/04/14 05:17:54;;;;;;;5.10;2.22;;;;;;;;;;5040028;28;20056;-69
2023/04/14 05:20:21;;;;;;;6.68;2.20;;;;;;;;;;5033769;28;20080;-68
2023/04/14 05:22:49;;;;;;;10.30;2.80;;;;;;;;;;5040065;28;20064;-68
2023/04/14 05:25:15;;;;;;;7.22;2.13;;;;;;;;;;5023927;28;20065;-69
2023/04/14 05:27:42;;;;;;;5.63;2.58;;;;;;;;;;5038085;28;20060;-71
2023/04/14 05:30:13;;;;;;;6.88;2.38;;;;;;;;;;5052816;28;20130;-69
2023/04/14 05:32:40;;;;;;;5.97;2.30;;;;;;;;;;5039345;28;20060;-70
2023/04/14 05:35:10;;;;;;;5.05;2.25;;;;;;;;;;5038190;28;20139;-68
2023/04/14 05:37:37;;;;;;;5.63;2.03;;;;;;;;;;5052981;28;20053;-70
2023/04/14 05:40:10;;;;;;;4.50;1.98;;;;;;;;;;5054364;28;20053;-69
2023/04/14 05:42:36;;;;;;;5.93;2.08;;;;;;;;;;5034588;28;20060;-69
2023/04/14 05:45:05;;;;;;;6.90;2.20;;;;;;;;;;5016903;28;20057;-69
2023/04/14 05:47:32;;;;;;;5.13;2.00;;;;;;;;;;5035253;28;20408;-69
2023/04/14 05:50:06;;;;;;;6.63;2.25;;;;;;;;;;5037543;28;20141;-68
2023/04/14 05:52:32;;;;;;;4.25;2.00;;;;;;;;;;5032926;28;20063;-70
2023/04/14 05:54:59;;;;;;;6.43;2.38;;;;;;;;;;5030553;28;20072;-71
2023/04/14 05:57:28;;;;;;;5.10;2.00;;;;;;;;;;5023787;28;20078;-68
2023/04/14 05:59:55;;;;;;;4.75;2.05;;;;;;;;;;5033863;28;20061;-69
2023/04/14 06:02:21;;;;;;;9.55;2.50;;;;;;;;;;5017023;28;20053;-69
2023/04/14 06:04:48;;;;;;;8.05;2.50;;;;;;;;;;5017171;28;20064;-69
2023/04/14 06:07:15;;;;;;;5.40;2.22;;;;;;;;;;5027535;28;20068;-68
2023/04/14 06:09:42;;;;;;;5.28;1.90;;;;;;;;;;5046871;28;20064;-69
2023/04/14 06:12:15;;;;;;;4.47;2.00;;;;;;;;;;5045170;28;20059;-70
2023/04/14 06:14:43;;;;;;;7.15;2.28;;;;;;;;;;5032565;28;20052;-68
2023/04/14 06:17:11;;;;;;;6.65;2.03;;;;;;;;;;5031776;28;20060;-70
2023/04/14 06:19:38;;;;;;;8.40;2.00;;;;;;;;;;5037080;28;20057;-71
2023/04/14 06:22:04;;;;;;;5.13;2.00;;;;;;;;;;5027431;28;20080;-71
2023/04/14 06:24:34;;;;;;;5.38;1.90;;;;;;;;;;5004107;28;20057;-70
2023/04/14 06:27:02;;;;;;;5.88;2.30;;;;;;;;;;5019381;28;20143;-68
2023/04/14 06:29:31;;;;;;;7.07;2.40;;;;;;;;;;5015684;28;20345;-68
2023/04/14 06:32:00;;;;;;;5.03;2.22;;;;;;;;;;5051574;28;20082;-69
2023/04/14 06:34:28;;;;;;;5.90;2.58;;;;;;;;;;5020324;28;20061;-70
2023/04/14 06:37:00;;;;;;;6.55;2.50;;;;;;;;;;5024758;28;20072;-68
2023/04/14 06:39:27;;;;;;;6.82;2.78;;;;;;;;;;5014295;28;20057;-69
2023/04/14 06:41:54;;;;;;;5.63;1.73;;;;;;;;;;5036658;28;20045;-69
2023/04/14 06:44:22;;;;;;;7.30;2.08;;;;;;;;;;5043851;28;20060;-70
2023/04/14 06:46:49;;;;;;;6.72;2.55;;;;;;;;;;5051236;28;20059;-69
2023/04/14 06:49:18;;;;;;;;;;;;;;;;;;5045188;28;20057;-68
2023/04/14 06:51:55;;;;;;;4.93;1.88;;;;;;;;;;5054094;28;20044;-69
2023/04/14 06:54:22;;;;;;;4.75;2.03;;;;;;;;;;5021215;28;20059;-69
2023/04/14 06:56:49;;;;;;;6.97;2.25;;;;;;;;;;5018689;28;20163;-69
2023/04/14 06:59:15;;;;;;;4.53;2.10;;;;;;;;;;5010776;28;20056;-69
2023/04/14 07:01:42;;;;;;;5.90;2.15;;;;;;;;;;5028861;28;20056;-70
2023/04/14 07:04:09;;;;;;;7.65;2.15;;;;;;;;;;5019374;28;20069;-69
2023/04/14 07:06:36;;;;;;;5.20;2.10;;;;;;;;;;5036528;28;20057;-71
2023/04/14 07:09:14;;;;;;;7.72;2.47;;;;;;;;;;5042478;28;20062;-70
2023/04/14 07:11:41;;;;;;;7.55;2.22;;;;;;;;;;5039529;28;20154;-68
2023/04/14 07:14:09;;;;;;;6.38;2.10;;;;;;;;;;5048436;28;20131;-71
2023/04/14 07:16:36;;;;;;;4.20;1.97;;;;;;;;;;5025917;28;20103;-70
2023/04/14 07:19:04;;;;;;;9.68;2.03;;;;;;;;;;5034559;28;20080;-70
2023/04/14 07:21:31;;;;;;;6.60;2.13;;;;;;;;;;5032193;28;20084;-70
2023/04/14 07:23:57;;;;;;;4.35;2.00;;;;;;;;;;5024571;28;20106;-68
2023/04/14 07:26:26;;;;;;;7.30;2.28;;;;;;;;;;5028738;28;20045;-70
2023/04/14 07:28:55;;;;;;;5.60;2.08;;;;;;;;;;5052460;28;20064;-70
2023/04/14 07:31:22;;;;;;;6.63;2.33;;;;;;;;;;5032320;28;20052;-69
2023/04/14 07:33:53;;;;;;;10.32;2.70;;;;;;;;;;5033878;28;20065;-69
2023/04/14 07:36:19;;;;;;;7.65;2.42;;;;;;;;;;5031442;28;20151;-70
2023/04/14 07:38:48;;;;;;;9.60;2.75;;;;;;;;;;5034657;28;20140;-70
2023/04/14 07:41:15;;;;;;;7.55;2.33;;;;;;;;;;5019577;28;20068;-69
2023/04/14 07:43:43;;;;;;;7.80;2.60;;;;;;;;;;5016903;28;20088;-70
2023/04/14 07:46:09;;;;;;;8.23;2.25;;;;;;;;;;5014594;28;20090;-69
2023/04/14 07:48:38;;;;;;;9.50;2.38;;;;;;;;;;5040668;28;20132;-70
2023/04/14 07:51:07;;;;;;;5.88;2.28;;;;;;;;;;5014502;28;20068;-68
2023/04/14 07:53:39;;;;;;;5.68;2.30;;;;;;;;;;5030268;28;20053;-69
2023/04/14 07:56:06;;;;;;;7.40;2.30;;;;;;;;;;5027206;28;20060;-68
2023/04/14 07:58:32;;;;;;;7.90;2.40;;;;;;;;;;5033517;28;20115;-70
2023/04/14 08:01:01;;;;;;;5.35;1.95;;;;;;;;;;5035444;28;20168;-69
2023/04/14 08:03:27;;;;;;;7.80;2.42;;;;;;;;;;5028826;28;20053;-70
2023/04/14 08:05:57;;;;;;;9.13;2.60;;;;;;;;;;5023171;28;20060;-69
2023/04/14 08:08:24;;;;;;;6.75;2.45;;;;;;;;;;5037235;28;20049;-69
2023/04/14 08:10:50;;;;;;;7.78;2.30;;;;;;;;;;5053040;28;20079;-69
2023/04/14 08:13:17;;;;;;;7.45;2.85;;;;;;;;;;5017302;28;20120;-69
2023/04/14 08:15:44;;;;;;;10.30;2.53;;;;;;;;;;5015334;28;20057;-71
2023/04/14 08:18:12;;;;;;;4.05;1.80;;;;;;;;;;5014726;28;20120;-69
2023/04/14 08:20:39;;;;;;;8.45;2.63;;;;;;;;;;5010631;28;20060;-68
2023/04/14 08:23:06;;;;;;;8.43;2.15;;;;;;;;;;5013317;28;20064;-69
2023/04/14 08:25:33;;;;;;;9.68;2.85;;;;;;;;;;4994972;28;20051;-70
2023/04/14 08:28:00;;;;;;;7.70;2.30;;;;;;;;;;5007481;28;20118;-69
2023/04/14 08:30:27;;;;;;;6.28;2.20;;;;;;;;;;5009167;28;20056;-70
2023/04/14 08:32:59;;;;;;;7.75;2.35;;;;;;;;;;5004443;28;20045;-69
2023/04/14 08:35:28;;;;;;;8.55;2.35;;;;;;;;;;4998940;28;20095;-69
2023/04/14 08:37:59;;;;;;;6.75;2.22;;;;;;;;;;5018643;28;20136;-69
2023/04/14 08:40:30;;;;;;;6.78;1.90;;;;;;;;;;5034736;28;20057;-70
2023/04/14 08:42:57;;;;;;;6.30;2.10;;;;;;;;;;5033900;28;20086;-69
2023/04/14 08:45:24;;;;;;;7.22;2.40;;;;;;;;;;5025921;28;20068;-70
2023/04/14 08:47:53;;;;;;;4.60;1.77;;;;;;;;;;5031024;28;20064;-68
2023/04/14 08:50:23;;;;;;;8.30;2.40;;;;;;;;;;5051006;28;20067;-68
2023/04/14 08:52:55;;;;;;;5.68;2.17;;;;;;;;;;5051111;28;20061;-68
2023/04/14 08:55:24;;;;;;;8.55;2.03;;;;;;;;;;5038410;28;20057;-70
2023/04/14 08:57:51;;;;;;;4.95;2.22;;;;;;;;;;5036788;28;20102;-68
2023/04/14 09:00:20;;;;;;;6.65;2.10;;;;;;;;;;5050749;28;20049;-69
2023/04/14 09:02:50;;;;;;;10.73;2.15;;;;;;;;;;5039314;28;20128;-67
2023/04/14 09:05:18;;;;;;;9.30;1.67;;;;;;;;;;5009420;28;20062;-69
2023/04/14 09:07:47;;;;;;;5.37;1.83;;;;;;;;;;5038716;28;20076;-70
2023/04/14 09:10:17;;;;;;;4.65;1.60;;;;;;;;;;5017795;28;20143;-68
2023/04/14 09:12:45;;;;;;;6.90;1.55;;;;;;;;;;5044786;28;20049;-70
2023/04/14 09:15:12;;;;;;;4.45;1.55;;;;;;;;;;5012541;28;20057;-68
2023/04/14 09:17:42;;;;;;;8.23;1.58;;;;;;;;;;5021804;28;20053;-70
2023/04/14 09:20:15;;;;;;;4.22;1.80;;;;;;;;;;5016996;28;20183;-70
2023/04/14 09:22:42;;;;;;;6.28;1.80;;;;;;;;;;5030376;28;20103;-69
2023/04/14 09:25:10;;;;;;;12.75;1.90;;;;;;;;;;5045401;28;20076;-69
2023/04/14 09:27:40;;;;;;;6.68;1.65;;;;;;;;;;5054217;28;20131;-71
2023/04/14 09:30:08;;;;;;;7.03;2.03;;;;;;;;;;5046097;28;20052;-68
2023/04/14 09:32:35;;;;;;;4.22;1.45;;;;;;;;;;5058657;28;20076;-68
2023/04/14 09:35:02;;;;;;;7.07;1.90;;;;;;;;;;4994923;28;20073;-69
2023/04/14 09:37:43;;;;;;;3.88;1.30;;;;;;;;;;5015158;28;20056;-70
2023/04/14 09:40:11;;;;;;;4.78;1.45;;;;;;;;;;5038005;28;20057;-69
2023/04/14 09:42:41;;;;;;;3.38;1.40;;;;;;;;;;5026259;28;20057;-70
2023/04/14 09:45:09;;;;;;;6.00;1.40;;;;;;;;;;5011692;28;20045;-70
2023/04/14 09:47:36;;;;;;;5.15;1.40;;;;;;;;;;5021978;28;20146;-68
2023/04/14 09:50:03;;;;;;;4.65;1.30;;;;;;;;;;5037692;28;20068;-75
2023/04/14 09:52:40;;;;;;;5.82;1.63;;;;;;;;;;5010329;28;20045;-70
2023/04/14 09:55:10;;;;;;;5.55;1.20;;;;;;;;;;5013006;28;20139;-71
2023/04/14 09:57:37;;;;;;;7.82;1.30;;;;;;;;;;5009898;28;20049;-73
2023/04/14 10:00:18;;;;;;;4.45;1.02;;;;;;;;;;5007910;28;20040;-72
2023/04/14 10:02:54;;;;;;;10.63;1.30;;;;;;;;;;5009054;28;20060;-73
2023/04/14 10:05:22;;;;;;;5.28;1.20;;;;;;;;;;4990575;28;20053;-69
2023/04/14 10:07:49;;;;;;;3.50;1.17;;;;;;;;;;5003859;28;20072;-72
2023/04/14 10:10:19;;;;;;;3.63;1.27;;;;;;;;;;4986516;28;20061;-70
2023/04/14 10:12:46;;;;;;;3.13;1.33;;;;;;;;;;4992717;28;20050;-70
2023/04/14 10:15:16;;;;;;;6.55;1.27;;;;;;;;;;4985221;28;20064;-72
2023/04/14 10:17:42;;;;;;;4.75;1.40;;;;;;;;;;5019350;28;20053;-72
2023/04/14 10:20:12;;;;;;;7.30;1.50;;;;;;;;;;5009106;28;20053;-72
2023/04/14 10:22:40;;;;;;;7.70;3.15;;;;;;;;;;5003879;28;20073;-74
2023/04/14 10:25:11;;;;;;;9.73;2.97;;;;;;;;;;4972233;28;20068;-73
2023/04/14 10:27:38;;;;;;;6.35;2.88;;;;;;;;;;4988609;28;20304;-72
2023/04/14 10:30:05;;;;;;;9.13;2.50;;;;;;;;;;5003481;28;20118;-72
2023/04/14 10:32:35;;;;;;;7.35;2.10;;;;;;;;;;4982871;28;20056;-73
2023/04/14 10:35:12;;;;;;;7.65;2.13;;;;;;;;;;4984765;28;20060;-72
2023/04/14 10:37:49;;;;;;;6.85;1.73;;;;;;;;;;5007704;28;20121;-73
2023/04/14 10:40:25;;;;;;;7.28;2.00;;;;;;;;;;4979814;28;20054;-73
2023/04/14 10:42:52;;;;;;;10.05;1.88;;;;;;;;;;5001544;28;20087;-73
2023/04/14 10:45:27;;;;;;;9.73;1.77;;;;;;;;;;4966098;28;20168;-73
2023/04/14 10:47:59;;;;;;;9.07;1.80;;;;;;;;;;5001108;28;20056;-73
2023/04/14 10:50:36;;;;;;;9.52;1.85;;;;;;;;;;5019674;28;20056;-72
2023/04/14 10:53:09;;;;;;;3.63;1.48;;;;;;;;;;5018659;28;20053;-75
2023/04/14 10:55:45;;;;;;;5.78;1.70;;;;;;;;;;5011524;28;20108;-73
2023/04/14 10:58:21;;;;;;;6.63;1.83;;;;;;;;;;5017205;28;20061;-73
2023/04/14 11:00:48;;;;;;;7.95;1.65;;;;;;;;;;5009585;28;20049;-74
2023/04/14 11:03:19;;;;;;;5.55;1.55;;;;;;;;;;4999463;28;20057;-72
2023/04/14 11:05:48;;;;;;;8.05;2.10;;;;;;;;;;4989629;28;20057;-73
2023/04/14 11:08:19;;;;;;;5.10;1.92;;;;;;;;;;5007051;28;20145;-73
2023/04/14 11:10:49;;;;;;;5.22;1.73;;;;;;;;;;5011226;28;20049;-73
2023/04/14 11:13:16;;;;;;;4.22;1.23;;;;;;;;;;4995283;28;20144;-73
2023/04/14 11:15:47;;;;;;;7.13;1.63;;;;;;;;;;5006960;28;20061;-74
2023/04/14 11:18:15;;;;;;;5.30;1.30;;;;;;;;;;5006479;28;20056;-73
2023/04/14 11:20:45;;;;;;;4.28;1.15;;;;;;;;;;5003648;28;20053;-74
2023/04/14 11:23:13;;;;;;;6.13;2.45;;;;;;;;;;5001933;28;20127;-73
2023/04/14 11:25:40;;;;;;;5.18;1.75;;;;;;;;;;5003677;28;20049;-73
2023/04/14 11:28:09;;;;;;;8.40;2.08;;;;;;;;;;5010239;28;20144;-73
2023/04/14 11:30:35;;;;;;;;;;;;;;;;;;5006149;28;20063;-73
2023/04/14 11:33:02;;;;;;;7.28;1.77;;;;;;;;;;5013599;28;19924;-74
2023/04/14 11:35:36;;;;;;;4.45;1.25;;;;;;;;;;5002014;28;20087;-73
2023/04/14 11:38:09;;;;;;;3.78;1.35;;;;;;;;;;4999340;28;20080;-72
2023/04/14 11:40:39;;;;;;;7.72;1.50;;;;;;;;;;5005097;28;20185;-73
2023/04/14 11:43:09;;;;;;;4.68;1.23;;;;;;;;;;4996675;28;20053;-74
2023/04/14 11:45:45;;;;;;;3.65;1.08;;;;;;;;;;4976779;28;20080;-73
2023/04/14 11:48:14;;;;;;;8.45;1.23;;;;;;;;;;5007508;28;20073;-74
2023/04/14 11:50:52;;;;;;;;;;;;;;;;;;;;;
2023/04/14 11:53:29;;;;;;;4.75;0.93;;;;;;;;;;5003357;28;20049;-72
2023/04/14 11:55:57;;;;;;;4.45;1.00;;;;;;;;;;4962082;28;20049;-73
2023/04/14 11:58:24;;;;;;;4.50;1.10;;;;;;;;;;5019590;28;20049;-73
2023/04/14 12:00:51;;;;;;;2.60;0.98;;;;;;;;;;5018668;28;20060;-73
2023/04/14 12:03:18;;;;;;;1.73;0.82;;;;;;;;;;5001887;28;20053;-74
2023/04/14 12:05:45;;;;;;;4.75;0.90;;;;;;;;;;4984449;28;20052;-74
2023/04/14 12:08:12;;;;;;;2.17;0.90;;;;;;;;;;5014235;28;20064;-74
2023/04/14 12:10:41;;;;;;;5.18;1.15;;;;;;;;;;5019947;28;20133;-73
2023/04/14 12:13:15;;;;;;;4.63;1.00;;;;;;;;;;5021753;28;20057;-74
2023/04/14 12:15:42;;;;;;;3.03;0.88;;;;;;;;;;4987735;28;20107;-74
2023/04/14 12:18:10;;;;;;;5.60;1.30;;;;;;;;;;5015953;28;20052;-73
2023/04/14 12:20:44;;;;;;;7.03;1.45;;;;;;;;;;5001874;28;20101;-74
2023/04/14 12:23:11;;;;;;;7.55;1.65;;;;;;;;;;5001932;28;20275;-73
2023/04/14 12:25:40;;;;;;;7.70;2.95;;;;;;;;;;5008700;28;20067;-73
2023/04/14 12:28:23;;;;;;;7.38;2.50;;;;;;;;;;5022369;28;20049;-74
2023/04/14 12:30:57;;;;;;;5.32;2.10;;;;;;;;;;5033848;28;20077;-73
2023/04/14 12:33:27;;;;;;;4.65;1.63;;;;;;;;;;5016099;28;20057;-74
2023/04/14 12:36:00;;;;;;;5.53;1.42;;;;;;;;;;4994831;28;20132;-73
2023/04/14 12:38:29;;;;;;;3.15;1.30;;;;;;;;;;5008264;28;20049;-72
2023/04/14 12:40:56;;;;;;;3.90;1.23;;;;;;;;;;5031318;28;20048;-73
2023/04/14 12:43:31;;;;;;;4.80;1.20;;;;;;;;;;5016285;28;20049;-73
2023/04/14 12:45:58;;;;;;;4.65;0.98;;;;;;;;;;5007834;28;20137;-73
2023/04/14 12:48:43;;;;;;;5.38;0.90;;;;;;;;;;5025332;28;20056;-73
2023/04/14 12:51:13;;;;;;;6.57;1.20;;;;;;;;;;5005752;28;20069;-72
2023/04/14 12:53:52;;;;;;;3.55;0.82;;;;;;;;;;5018740;28;20123;-73
2023/04/14 12:56:22;;;;;;;;;;;;;;;;;;4990680;28;20159;-73
2023/04/14 12:59:01;;;;;;;6.60;1.20;;;;;;;;;;4997186;28;19925;-73
2023/04/14 13:01:28;;;;;;;5.20;1.25;;;;;;;;;;5035352;28;20110;-73
2023/04/14 13:03:55;;;;;;;3.55;1.00;;;;;;;;;;5038043;28;20147;-72
2023/04/14 13:06:23;;;;;;;1.73;0.82;;;;;;;;;;4997790;28;20076;-73
2023/04/14 13:09:10;;;;;;;2.75;0.75;;;;;;;;;;5007589;28;20053;-74
2023/04/14 13:11:38;;;;;;;7.60;1.60;;;;;;;;;;5019285;28;20075;-73
2023/04/14 13:14:09;;;;;;;5.90;1.98;;;;;;;;;;5015970;28;20135;-73
2023/04/14 13:16:36;;;;;;;10.27;2.15;;;;;;;;;;5000360;28;20259;-70
2023/04/14 13:19:03;;;;;;;3.97;1.50;;;;;;;;;;5016195;28;20075;-69
2023/04/14 13:21:33;;;;;;;4.00;1.60;;;;;;;;;;5013623;28;20065;-71
2023/04/14 13:24:00;;;;;;;5.35;1.80;;;;;;;;;;5003947;28;20060;-71
2023/04/14 13:26:27;;;;;;;6.60;1.70;;;;;;;;;;4998470;28;20131;-71
2023/04/14 13:29:09;;;;;;;3.88;1.42;;;;;;;;;;5015122;28;20064;-70
2023/04/14 13:31:37;;;;;;;4.70;1.60;;;;;;;;;;4986524;28;20054;-70
2023/04/14 13:34:04;;;;;;;5.68;1.55;;;;;;;;;;5009842;28;20057;-72
2023/04/14 13:36:33;;;;;;;6.50;1.80;;;;;;;;;;5009037;28;20083;-71
2023/04/14 13:39:06;;;;;;;5.35;1.60;;;;;;;;;;5018467;28;20057;-69
2023/04/14 13:41:36;;;;;;;9.57;1.88;;;;;;;;;;5009808;28;20083;-69
2023/04/14 13:44:03;;;;;;;5.57;1.92;;;;;;;;;;5005022;28;20084;-72
2023/04/14 13:46:31;;;;;;;6.15;1.38;;;;;;;;;;5010144;28;20053;-70
2023/04/14 13:49:00;;;;;;;4.75;1.52;;;;;;;;;;5000732;28;20156;-70
2023/04/14 13:51:26;;;;;;;3.90;1.23;;;;;;;;;;5013291;28;20045;-70
2023/04/14 13:53:58;;;;;;;5.15;1.10;;;;;;;;;;5009522;28;20040;-70
2023/04/14 13:56:26;;;;;;;4.68;1.15;;;;;;;;;;5011985;28;20057;-70
2023/04/14 13:58:53;;;;;;;3.28;1.50;;;;;;;;;;5019322;28;20056;-71
2023/04/14 14:01:20;;;;;;;6.93;1.23;;;;;;;;;;5010545;28;20140;-71
2023/04/14 14:03:49;;;;;;;5.28;1.10;;;;;;;;;;5015051;28;20235;-71
2023/04/14 14:06:18;;;;;;;3.83;1.27;;;;;;;;;;5014463;28;20051;-71
2023/04/14 14:08:46;;;;;;;3.42;0.90;;;;;;;;;;5016747;28;20057;-71
2023/04/14 14:11:13;;;;;;;5.80;1.15;;;;;;;;;;5018255;28;20056;-70
2023/04/14 14:13:40;;;;;;;3.75;1.20;;;;;;;;;;5017973;28;20091;-70
2023/04/14 14:16:07;;;;;;;3.88;1.00;;;;;;;;;;5020107;28;20064;-70
2023/04/14 14:18:34;;;;;;;2.80;0.75;;;;;;;;;;5018927;28;20041;-71
2023/04/14 14:21:04;;;;;;;4.10;0.80;;;;;;;;;;5007403;28;20048;-70
2023/04/14 14:23:38;;;;;;;4.03;0.90;;;;;;;;;;5019029;28;20052;-71
2023/04/14 14:26:06;;;;;;;5.35;1.00;;;;;;;;;;5011151;28;20080;-70
2023/04/14 14:28:36;;;;;;;4.20;1.00;;;;;;;;;;5016109;28;20124;-71
2023/04/14 14:31:02;;;;;;;1.95;0.90;;;;;;;;;;5019577;28;20053;-71
2023/04/14 14:33:32;;;;;;;4.63;1.30;;;;;;;;;;4995742;28;20049;-71
2023/04/14 14:36:01;;;;;;;4.78;1.20;;;;;;;;;;5002983;28;20150;-71
2023/04/14 14:38:28;;;;;;;3.75;1.02;;;;;;;;;;5003051;28;20041;-71
2023/04/14 14:40:56;;;;;;;4.00;0.98;;;;;;;;;;4994655;28;20064;-70
2023/04/14 14:43:25;;;;;;;3.83;1.10;;;;;;;;;;4996431;28;20045;-71
2023/04/14 14:45:54;;;;;;;3.03;1.00;;;;;;;;;;5000531;28;20064;-70
2023/04/14 14:48:24;;;;;;;2.67;0.98;;;;;;;;;;5009123;28;20063;-71
2023/04/14 14:50:50;;;;;;;7.05;1.13;;;;;;;;;;5016676;28;20052;-71
2023/04/14 14:53:27;;;;;;;3.97;0.90;;;;;;;;;;4995112;28;20040;-71
2023/04/14 14:55:56;;;;;;;3.42;1.10;;;;;;;;;;5010099;28;20053;-71